Cameron, West Virginia
Current Conditions -  °F | °C
As of 12:13 AM on Sunday 21 Dec 2014 (Local Time) from KHLG Reporting Station
Overcast Overcast  
Wind Chill: 28°   Ceiling: 2800
Heat Index: 28°   Visibility: 10mi
Dew Point: 20°   Wind: 0mph
Humidity: 72%   Direction: NA
Pressure: 30.26"   Gusts: NA
Location:  39.83°N, 80.57°W
Report Text: KHLG 210513Z AUTO 00000KT 10SM OVC028 M02/M07 A3026 RMK AO2 T10221067
Loading
Personal Weather Stations






























Interactive Weather Map New forecast layout! Learn more

10-Day Weather Forecast

Advertisements
Track Severe Weather on mobile